Time;durP1;ratioP1;P1;durP2;ratioP2;P2;SDS_P1;SDS_P2;PMS_P1;PMS_P2;Temp;Humidity;BMP_temperature;BMP_pressure;BME280_temperature;BME280_humidity;BME280_pressure;Samples;Min_cycle;Max_cycle;Signal;HPM_P1;HPM_P2
2023/08/24 00:00:23;;;;;;;5.60;3.00;;;;;;;17.60;72.09;100715.81;104031;275;41280;-73
2023/08/24 00:03:17;;;;;;;9.00;3.50;;;;;;;17.57;72.17;100714.77;104179;275;39012;-74
2023/08/24 00:05:52;;;;;;;3.50;2.90;;;;;;;17.54;72.07;100715.13;104138;275;38667;-75
2023/08/24 00:08:26;;;;;;;4.40;3.20;;;;;;;17.52;72.30;100716.12;104156;275;39460;-74
2023/08/24 00:11:00;;;;;;;5.10;3.30;;;;;;;17.51;72.31;100718.84;104137;263;38236;-74
2023/08/24 00:13:34;;;;;;;5.40;3.20;;;;;;;17.48;72.13;100717.95;104118;275;38449;-72
2023/08/24 00:16:08;;;;;;;4.90;3.20;;;;;;;17.45;72.20;100720.63;104153;275;38687;-73
2023/08/24 00:18:42;;;;;;;4.10;3.10;;;;;;;17.42;72.42;100721.86;104163;275;38502;-73
2023/08/24 00:21:19;;;;;;;7.80;3.20;;;;;;;17.41;72.43;100718.75;104144;275;39972;-71
2023/08/24 00:23:53;;;;;;;4.70;3.40;;;;;;;17.39;72.50;100723.96;104172;275;38264;-73
2023/08/24 00:26:27;;;;;;;4.80;3.50;;;;;;;17.38;72.60;100721.04;103997;275;41046;-74
2023/08/24 00:29:03;;;;;;;5.30;3.10;;;;;;;17.34;72.38;100718.64;104193;275;38698;-75
2023/08/24 00:31:37;;;;;;;4.80;3.40;;;;;;;17.31;72.54;100718.29;104117;275;38423;-75
2023/08/24 00:34:12;;;;;;;3.90;3.40;;;;;;;17.25;72.57;100715.64;104165;275;38349;-74
2023/08/24 00:36:46;;;;;;;6.60;3.50;;;;;;;17.22;72.73;100712.88;104188;275;38270;-74
2023/08/24 00:39:20;;;;;;;4.00;3.70;;;;;;;17.21;72.92;100711.15;104153;275;38242;-74
2023/08/24 00:41:54;;;;;;;5.50;3.70;;;;;;;17.18;72.91;100706.19;104178;275;38546;-72
2023/08/24 00:44:28;;;;;;;4.30;3.30;;;;;;;17.16;72.94;100707.57;104185;275;38248;-75
2023/08/24 00:47:03;;;;;;;4.10;3.70;;;;;;;17.14;73.12;100704.38;104115;275;39551;-73
2023/08/24 00:49:37;;;;;;;4.80;3.30;;;;;;;17.11;73.10;100707.02;103985;274;41616;-73
2023/08/24 00:52:11;;;;;;;5.60;3.50;;;;;;;17.09;73.20;100705.56;104141;275;39568;-74
2023/08/24 00:54:44;;;;;;;4.00;3.20;;;;;;;17.08;73.22;100707.89;104123;275;38235;-73
2023/08/24 00:57:18;;;;;;;6.20;3.90;;;;;;;17.08;73.15;100707.91;104084;275;38465;-73
2023/08/24 00:59:53;;;;;;;5.70;3.40;;;;;;;17.07;73.11;100707.58;104168;275;38610;-75
2023/08/24 01:02:27;;;;;;;6.00;3.50;;;;;;;17.07;73.23;100707.75;104207;275;39390;-73
2023/08/24 01:05:03;;;;;;;5.80;3.70;;;;;;;17.07;73.25;100706.92;104146;275;38259;-73
2023/08/24 01:07:40;;;;;;;4.50;3.90;;;;;;;17.06;73.37;100705.39;104197;275;39539;-73
2023/08/24 01:10:14;;;;;;;5.80;3.50;;;;;;;17.08;73.40;100707.50;104129;275;39780;-75
2023/08/24 01:12:59;;;;;;;5.70;4.20;;;;;;;17.15;73.38;100706.77;104018;275;39424;-73
2023/08/24 01:15:41;;;;;;;4.40;3.60;;;;;;;17.21;73.26;100707.48;103742;276;173993;-72
2023/08/24 01:18:19;;;;;;;5.20;3.70;;;;;;;17.27;73.04;100707.58;104168;275;38285;-71
2023/08/24 01:20:54;;;;;;;5.50;3.60;;;;;;;17.32;73.02;100707.29;104113;275;38521;-73
2023/08/24 01:23:37;;;;;;;6.10;3.40;;;;;;;17.34;72.83;100708.44;104199;275;39458;-72
2023/08/24 01:26:21;;;;;;;4.50;3.40;;;;;;;17.36;72.88;100703.56;104000;275;39687;-73
2023/08/24 01:28:55;;;;;;;4.90;3.20;;;;;;;17.37;72.78;100703.82;104144;275;38541;-71
2023/08/24 01:31:29;;;;;;;4.30;3.80;;;;;;;17.39;72.60;100702.27;104119;275;39420;-71
2023/08/24 01:34:03;;;;;;;6.30;3.80;;;;;;;17.42;72.43;100705.45;104112;275;39420;-71
2023/08/24 01:36:38;;;;;;;4.50;3.90;;;;;;;17.44;72.29;100701.32;104127;264;38544;-73
2023/08/24 01:39:21;;;;;;;5.10;3.80;;;;;;;17.44;72.28;100699.20;104126;275;39456;-73
2023/08/24 01:41:55;;;;;;;4.80;4.10;;;;;;;17.42;72.18;100698.22;104084;275;38778;-73
2023/08/24 01:44:32;;;;;;;4.50;4.10;;;;;;;17.40;72.14;100701.54;104133;275;38673;-73
2023/08/24 01:47:06;;;;;;;4.60;3.90;;;;;;;17.38;72.03;100701.29;104022;275;174917;-74
2023/08/24 01:49:42;;;;;;;5.70;4.30;;;;;;;17.34;72.06;100697.48;104084;275;38268;-72
2023/08/24 01:52:16;;;;;;;4.60;4.00;;;;;;;17.30;72.15;100698.27;104134;275;38992;-73
2023/08/24 01:54:51;;;;;;;5.20;3.80;;;;;;;17.25;72.17;100696.63;104111;275;38216;-73
2023/08/24 01:57:25;;;;;;;6.90;4.10;;;;;;;17.19;72.10;100694.71;104181;275;38678;-72
2023/08/24 01:59:59;;;;;;;5.20;3.50;;;;;;;17.14;72.17;100691.86;104022;276;38227;-74
2023/08/24 02:02:34;;;;;;;5.20;3.50;;;;;;;17.08;72.37;100687.61;104032;276;38270;-74
2023/08/24 02:05:09;;;;;;;5.20;3.80;;;;;;;17.01;72.48;100689.25;104116;275;38408;-74
2023/08/24 02:07:43;;;;;;;5.20;3.80;;;;;;;16.95;72.61;100691.35;104149;275;38616;-74
2023/08/24 02:10:17;;;;;;;4.60;4.00;;;;;;;16.88;72.81;100687.91;104118;275;39211;-74
2023/08/24 02:12:51;;;;;;;4.80;4.10;;;;;;;16.83;73.07;100688.91;104172;275;39499;-73
2023/08/24 02:15:25;;;;;;;4.00;3.60;;;;;;;16.78;73.16;100686.73;104137;276;39616;-72
2023/08/24 02:18:00;;;;;;;4.10;3.50;;;;;;;16.73;73.39;100683.30;103915;278;40274;-72
2023/08/24 02:20:38;;;;;;;4.90;3.90;;;;;;;16.69;73.57;100683.54;104102;275;38277;-71
2023/08/24 02:23:11;;;;;;;5.00;3.90;;;;;;;16.63;73.79;100687.39;104165;275;38677;-73
2023/08/24 02:25:47;;;;;;;7.00;3.90;;;;;;;16.60;74.11;100686.71;104064;275;39689;-72
2023/08/24 02:28:21;;;;;;;4.20;3.70;;;;;;;16.57;74.33;100682.12;104131;275;40207;-73
2023/08/24 02:30:55;;;;;;;5.00;3.70;;;;;;;16.56;74.72;100678.48;104101;275;38866;-72
2023/08/24 02:33:29;;;;;;;4.10;3.50;;;;;;;16.57;74.74;100680.38;104173;275;38861;-74
2023/08/24 02:36:03;;;;;;;5.90;3.50;;;;;;;16.58;75.04;100682.41;104134;275;39821;-72
2023/08/24 02:38:37;;;;;;;5.50;3.20;;;;;;;16.60;75.15;100684.60;104147;275;39667;-72
2023/08/24 02:41:12;;;;;;;4.30;3.50;;;;;;;16.61;75.15;100686.80;104111;276;39983;-72
2023/08/24 02:43:46;;;;;;;5.50;3.60;;;;;;;16.63;75.25;100688.61;103999;275;39950;-73
2023/08/24 02:46:21;;;;;;;4.80;3.50;;;;;;;16.65;75.21;100687.31;104115;276;38677;-73
2023/08/24 02:48:56;;;;;;;4.70;3.00;;;;;;;16.66;75.25;100688.28;104122;275;38245;-74
2023/08/24 02:51:31;;;;;;;5.10;3.40;;;;;;;16.67;75.19;100685.41;104105;275;38247;-74
2023/08/24 02:54:05;;;;;;;5.30;3.60;;;;;;;16.69;75.29;100686.71;104040;277;38694;-74
2023/08/24 02:56:39;;;;;;;6.40;4.10;;;;;;;16.70;75.25;100684.21;104148;275;38284;-72
2023/08/24 02:59:13;;;;;;;4.70;3.20;;;;;;;16.68;75.24;100688.17;104167;275;38827;-73
2023/08/24 03:01:47;;;;;;;6.30;3.70;;;;;;;16.68;75.31;100692.39;104127;275;38295;-73
2023/08/24 03:04:21;;;;;;;6.80;3.30;;;;;;;16.69;75.34;100690.23;104130;275;38509;-73
2023/08/24 03:06:55;;;;;;;5.90;3.60;;;;;;;16.69;75.38;100691.63;103989;276;39924;-74
2023/08/24 03:09:30;;;;;;;5.20;3.00;;;;;;;16.71;75.32;100685.72;104167;276;39383;-74
2023/08/24 03:12:06;;;;;;;5.40;3.30;;;;;;;16.74;75.29;100686.59;104100;275;38237;-74
2023/08/24 03:14:40;;;;;;;6.20;4.10;;;;;;;16.75;75.37;100684.96;104124;275;39886;-74
2023/08/24 03:17:14;;;;;;;5.30;3.60;;;;;;;16.75;75.26;100687.45;104139;275;39411;-74
2023/08/24 03:19:48;;;;;;;5.00;3.30;;;;;;;16.75;75.09;100684.64;104126;275;39762;-73
2023/08/24 03:22:21;;;;;;;4.00;3.10;;;;;;;16.74;75.03;100686.08;104144;275;38786;-75
2023/08/24 03:24:56;;;;;;;3.80;3.40;;;;;;;16.72;75.11;100684.08;104110;275;38708;-73
2023/08/24 03:27:29;;;;;;;4.60;2.80;;;;;;;16.69;75.05;100678.07;104172;275;38523;-72
2023/08/24 03:30:04;;;;;;;5.40;3.30;;;;;;;16.67;75.01;100674.14;104041;276;38602;-74
2023/08/24 03:32:37;;;;;;;3.50;2.90;;;;;;;16.65;75.10;100670.92;104200;276;38351;-73
2023/08/24 03:35:12;;;;;;;5.50;3.20;;;;;;;16.62;75.14;100671.08;104128;275;38261;-74
2023/08/24 03:37:46;;;;;;;5.00;3.20;;;;;;;16.58;75.15;100672.55;104167;275;40241;-74
2023/08/24 03:40:20;;;;;;;4.00;3.50;;;;;;;16.55;75.28;100674.48;104133;275;39899;-73
2023/08/24 03:42:54;;;;;;;3.90;2.80;;;;;;;16.53;75.43;100672.52;104127;275;38727;-72
2023/08/24 03:45:28;;;;;;;5.90;3.20;;;;;;;16.50;75.46;100673.55;104135;275;39396;-73
2023/08/24 03:48:02;;;;;;;4.50;3.30;;;;;;;16.49;75.45;100670.98;103884;278;38344;-72
2023/08/24 03:50:36;;;;;;;4.40;3.30;;;;;;;16.49;75.59;100676.04;104118;275;39032;-74
2023/08/24 03:53:10;;;;;;;3.90;3.30;;;;;;;16.49;75.40;100674.83;104154;276;38331;-73
2023/08/24 03:55:50;;;;;;;5.70;3.50;;;;;;;16.50;75.52;100676.52;103947;275;38402;-74
2023/08/24 03:58:25;;;;;;;5.90;4.30;;;;;;;16.50;75.57;100679.52;104148;275;38410;-73
2023/08/24 04:00:58;;;;;;;5.70;3.90;;;;;;;16.51;75.66;100681.05;104131;275;38301;-73
2023/08/24 04:03:32;;;;;;;6.30;3.40;;;;;;;16.51;75.64;100687.05;104212;275;38496;-73
2023/08/24 04:06:07;;;;;;;3.90;3.50;;;;;;;16.52;75.64;100686.80;104147;276;38819;-73
2023/08/24 04:08:41;;;;;;;4.30;3.60;;;;;;;16.54;75.75;100690.39;104218;276;38232;-74
2023/08/24 04:11:15;;;;;;;5.40;4.20;;;;;;;16.57;75.86;100687.59;104152;275;39635;-74
2023/08/24 04:13:49;;;;;;;4.70;4.20;;;;;;;16.60;75.87;100693.06;104153;275;38929;-72
2023/08/24 04:16:23;;;;;;;6.40;3.80;;;;;;;16.63;75.96;100695.70;104148;276;38441;-73
2023/08/24 04:18:57;;;;;;;6.50;3.80;;;;;;;16.65;76.10;100695.92;104147;275;38386;-74
2023/08/24 04:21:31;;;;;;;4.60;3.80;;;;;;;16.68;76.15;100700.31;104157;275;38809;-73
2023/08/24 04:24:05;;;;;;;6.40;4.70;;;;;;;16.71;76.31;100693.13;104151;275;38907;-73
2023/08/24 04:26:40;;;;;;;5.10;4.20;;;;;;;16.75;76.45;100690.61;104044;275;174685;-73
2023/08/24 04:29:14;;;;;;;4.50;3.90;;;;;;;16.78;76.65;100691.13;104129;275;38225;-73
2023/08/24 04:31:48;;;;;;;5.10;3.50;;;;;;;16.84;76.82;100689.56;104129;275;38352;-73
2023/08/24 04:34:21;;;;;;;4.50;3.90;;;;;;;16.90;76.78;100683.91;104166;275;38580;-73
2023/08/24 04:36:55;;;;;;;5.80;3.50;;;;;;;16.98;76.99;100679.23;104118;267;38520;-74
2023/08/24 04:39:30;;;;;;;3.90;3.30;;;;;;;17.06;77.05;100678.00;104034;275;188892;-72
2023/08/24 04:42:05;;;;;;;4.20;3.40;;;;;;;17.32;78.16;100675.05;104162;275;38767;-74
2023/08/24 04:44:39;;;;;;;6.00;3.10;;;;;;;17.75;78.66;100676.46;104120;275;38032;-73
2023/08/24 04:47:13;;;;;;;3.40;2.90;;;;;;;18.25;76.84;100674.86;104158;275;38429;-75
2023/08/24 04:49:47;;;;;;;5.00;3.30;;;;;;;18.43;75.05;100680.02;104139;275;40221;-74
2023/08/24 04:52:22;;;;;;;5.40;3.90;;;;;;;18.51;73.79;100680.05;104149;275;38530;-74
2023/08/24 04:54:56;;;;;;;6.30;3.20;;;;;;;18.51;73.00;100677.53;104117;275;38652;-73
2023/08/24 04:57:29;;;;;;;3.40;3.10;;;;;;;18.56;72.41;100681.46;104138;275;40297;-73
2023/08/24 05:00:05;;;;;;;4.20;2.80;;;;;;;18.71;72.02;100681.53;104136;275;38417;-75
2023/08/24 05:02:39;;;;;;;6.40;2.90;;;;;;;18.82;71.48;100677.95;104149;275;38241;-74
2023/08/24 05:05:14;;;;;;;6.50;3.40;;;;;;;18.85;70.89;100674.77;104113;275;38409;-74
2023/08/24 05:07:49;;;;;;;5.30;2.90;;;;;;;18.87;70.62;100675.20;104191;276;38835;-74
2023/08/24 05:10:22;;;;;;;4.80;3.50;;;;;;;18.91;70.48;100676.51;104132;275;38548;-74
2023/08/24 05:12:57;;;;;;;5.30;3.60;;;;;;;18.94;70.01;100673.61;104019;275;40024;-74
2023/08/24 05:15:31;;;;;;;4.80;3.30;;;;;;;18.99;69.81;100680.56;104139;276;39638;-74
2023/08/24 05:18:05;;;;;;;5.00;3.40;;;;;;;19.04;69.72;100684.95;104135;275;39511;-73
2023/08/24 05:20:39;;;;;;;6.10;2.70;;;;;;;19.09;69.51;100687.25;103985;269;39458;-73
2023/08/24 05:23:13;;;;;;;3.80;3.00;;;;;;;19.16;69.19;100691.55;103524;275;898661;-72
2023/08/24 05:25:47;;;;;;;5.80;3.10;;;;;;;19.25;69.03;100690.95;104125;275;39758;-74
2023/08/24 05:28:22;;;;;;;4.50;3.20;;;;;;;19.36;69.12;100687.56;104156;275;39638;-73
2023/08/24 05:30:57;;;;;;;4.60;3.30;;;;;;;19.49;69.46;100691.75;104147;275;38448;-73
2023/08/24 05:33:33;;;;;;;5.20;3.20;;;;;;;19.62;69.02;100694.23;104168;276;39986;-73
2023/08/24 05:36:07;;;;;;;8.10;3.80;;;;;;;19.71;68.65;100691.86;104130;275;38236;-73
2023/08/24 05:38:46;;;;;;;5.70;3.70;;;;;;;19.80;68.82;100691.02;104141;275;38646;-72
2023/08/24 05:41:20;;;;;;;6.10;3.30;;;;;;;19.92;68.44;100693.89;104148;276;38794;-73
2023/08/24 05:43:57;;;;;;;5.90;3.90;;;;;;;20.10;69.07;100695.04;104166;275;39395;-74
2023/08/24 05:46:32;;;;;;;6.60;3.50;;;;;;;20.79;70.97;100697.55;104133;275;38340;-72
2023/08/24 05:49:07;;;;;;;5.30;3.30;;;;;;;22.01;69.79;100693.23;104177;275;39670;-73
2023/08/24 05:51:41;;;;;;;5.70;3.50;;;;;;;23.24;67.16;100690.44;104080;276;38381;-74
2023/08/24 05:54:18;;;;;;;4.50;3.70;;;;;;;24.41;63.13;100690.61;104139;275;39437;-74
2023/08/24 05:56:53;;;;;;;5.50;3.20;;;;;;;25.44;60.09;100690.86;104104;275;38234;-74
2023/08/24 05:59:27;;;;;;;5.20;3.30;;;;;;;26.37;56.73;100686.77;104150;275;40254;-74
2023/08/24 06:02:01;;;;;;;10.20;3.60;;;;;;;27.24;54.34;100688.78;104020;275;174082;-72
2023/08/24 06:04:36;;;;;;;4.80;3.00;;;;;;;28.02;51.01;100687.06;104156;275;38381;-73
2023/08/24 06:07:10;;;;;;;6.50;3.00;;;;;;;28.69;48.98;100688.02;103987;276;38277;-74
2023/08/24 06:09:44;;;;;;;4.40;2.70;;;;;;;29.35;47.16;100685.90;104106;275;39357;-74
2023/08/24 06:12:18;;;;;;;4.80;3.20;;;;;;;30.02;45.47;100684.15;104156;275;39386;-75
2023/08/24 06:14:52;;;;;;;4.10;3.10;;;;;;;30.60;43.34;100685.80;104111;275;38229;-76
2023/08/24 06:17:27;;;;;;;4.20;2.90;;;;;;;30.98;41.89;100682.11;104124;275;39335;-75
2023/08/24 06:20:01;;;;;;;7.60;3.30;;;;;;;31.39;41.05;100679.42;104021;275;38405;-73
2023/08/24 06:22:35;;;;;;;4.90;2.40;;;;;;;31.89;40.48;100678.11;104134;275;38407;-75
2023/08/24 06:25:11;;;;;;;3.10;2.80;;;;;;;32.15;37.89;100681.59;104114;275;38252;-73
2023/08/24 06:27:45;;;;;;;4.80;3.00;;;;;;;32.18;38.60;100679.65;104148;275;38316;-75
2023/08/24 06:30:23;;;;;;;4.00;3.20;;;;;;;32.09;38.25;100679.88;104155;275;38267;-76
2023/08/24 06:32:57;;;;;;;4.70;2.50;;;;;;;31.74;37.97;100681.11;104171;275;38392;-76
2023/08/24 06:35:34;;;;;;;4.00;2.80;;;;;;;31.07;38.10;100680.14;104120;275;38244;-76
2023/08/24 06:38:08;;;;;;;4.40;2.10;;;;;;;30.50;38.31;100679.60;104133;275;39465;-70
2023/08/24 06:40:43;;;;;;;3.70;2.50;;;;;;;29.99;38.55;100676.80;104144;275;39186;-70
2023/08/24 06:43:18;;;;;;;4.80;3.20;;;;;;;29.48;39.37;100683.05;104132;263;38249;-70
2023/08/24 06:45:52;;;;;;;5.30;2.90;;;;;;;29.01;40.00;100684.34;104141;275;39759;-72
2023/08/24 06:48:26;;;;;;;6.30;3.00;;;;;;;28.57;40.81;100685.37;104204;275;39988;-74
2023/08/24 06:50:59;;;;;;;4.80;2.60;;;;;;;28.19;41.12;100680.39;103999;276;176768;-71
2023/08/24 06:53:33;;;;;;;9.10;3.30;;;;;;;27.81;41.60;100679.36;104172;275;38858;-71
2023/08/24 06:56:07;;;;;;;6.00;2.70;;;;;;;27.52;42.62;100680.81;104145;275;38272;-71
2023/08/24 06:58:42;;;;;;;3.40;2.90;;;;;;;27.29;43.09;100682.01;104151;275;39317;-72
2023/08/24 07:01:17;;;;;;;4.60;2.70;;;;;;;27.10;43.52;100679.63;104144;275;38393;-72
2023/08/24 07:03:51;;;;;;;5.40;2.60;;;;;;;26.97;43.84;100680.90;103463;277;678645;-70
2023/08/24 07:06:25;;;;;;;6.10;2.50;;;;;;;26.85;44.28;100685.57;104073;275;39494;-70
2023/08/24 07:08:59;;;;;;;4.90;2.70;;;;;;;26.77;44.23;100686.23;104164;275;38274;-70
2023/08/24 07:11:33;;;;;;;5.80;2.70;;;;;;;26.73;44.46;100689.81;104139;275;38595;-71
2023/08/24 07:14:07;;;;;;;4.10;2.90;;;;;;;26.69;45.20;100688.57;104125;275;38764;-70
2023/08/24 07:16:42;;;;;;;5.10;2.40;;;;;;;26.68;45.52;100687.42;104132;276;39684;-72
2023/08/24 07:19:16;;;;;;;4.00;2.50;;;;;;;26.68;45.51;100691.90;104146;275;40143;-70
2023/08/24 07:21:51;;;;;;;5.10;2.40;;;;;;;26.73;46.11;100693.20;104100;276;38344;-73
2023/08/24 07:24:26;;;;;;;4.60;2.50;;;;;;;26.90;46.51;100697.56;104134;275;38217;-72
2023/08/24 07:27:04;;;;;;;8.30;2.60;;;;;;;27.23;46.05;100693.49;104176;275;38309;-72
2023/08/24 07:29:38;;;;;;;4.50;2.30;;;;;;;27.62;45.95;100693.52;104182;275;39414;-74
2023/08/24 07:32:11;;;;;;;4.50;2.10;;;;;;;27.93;45.58;100692.67;104025;277;39378;-74
2023/08/24 07:34:45;;;;;;;6.20;2.50;;;;;;;28.22;44.15;100689.46;104131;275;39454;-75
2023/08/24 07:37:19;;;;;;;5.50;2.20;;;;;;;28.51;44.04;100692.67;103997;275;39443;-75
2023/08/24 07:39:53;;;;;;;4.50;2.50;;;;;;;28.88;43.50;100695.70;104138;275;39345;-74
2023/08/24 07:42:27;;;;;;;2.80;2.20;;;;;;;29.27;42.58;100696.16;104145;275;38326;-75
2023/08/24 07:45:01;;;;;;;4.50;2.40;;;;;;;29.50;42.24;100694.82;104156;275;38226;-74
2023/08/24 07:47:35;;;;;;;4.50;2.30;;;;;;;29.65;42.07;100695.77;103983;275;38231;-72
2023/08/24 07:50:10;;;;;;;6.10;2.70;;;;;;;29.72;41.51;100694.02;104097;275;39978;-73
2023/08/24 07:52:44;;;;;;;3.80;2.30;;;;;;;29.78;40.84;100689.75;104150;275;39405;-74
2023/08/24 07:55:18;;;;;;;3.50;2.30;;;;;;;29.82;40.88;100692.11;103960;276;40924;-70
2023/08/24 07:57:52;;;;;;;4.70;2.00;;;;;;;30.26;40.84;100693.71;104139;275;39289;-70
2023/08/24 08:00:26;;;;;;;3.00;2.10;;;;;;;30.80;39.74;100690.99;104144;275;38361;-69
2023/08/24 08:03:01;;;;;;;4.00;2.10;;;;;;;31.46;39.11;100685.05;104166;275;40039;-72
2023/08/24 08:05:35;;;;;;;3.40;2.00;;;;;;;32.25;37.60;100689.06;104107;275;38285;-73
2023/08/24 08:08:20;;;;;;;2.80;2.10;;;;;;;33.03;36.80;100687.10;103385;276;883599;-72
2023/08/24 08:11:03;;;;;;;4.90;2.40;;;;;;;33.72;35.00;100684.09;104156;275;38685;-70
2023/08/24 08:13:37;;;;;;;3.70;2.00;;;;;;;34.37;34.44;100680.94;104147;275;38849;-73
2023/08/24 08:16:11;;;;;;;3.40;2.30;;;;;;;34.51;33.14;100681.05;104138;275;38757;-72
2023/08/24 08:18:45;;;;;;;3.50;2.00;;;;;;;34.39;32.72;100683.28;104150;275;38537;-71
2023/08/24 08:21:22;;;;;;;4.20;1.90;;;;;;;34.40;33.11;100685.70;104141;275;38388;-70
2023/08/24 08:23:55;;;;;;;;;;;;;;;34.35;33.33;100685.10;104145;275;38451;-71
2023/08/24 08:26:30;;;;;;;4.30;2.50;;;;;;;34.02;33.34;100685.94;104100;275;38432;-70
2023/08/24 08:29:05;;;;;;;4.40;2.30;;;;;;;33.66;33.96;100688.19;104135;275;38373;-71
2023/08/24 08:31:39;;;;;;;4.00;2.30;;;;;;;33.25;33.60;100690.89;104130;275;38447;-71
2023/08/24 08:34:13;;;;;;;4.00;2.40;;;;;;;32.83;33.74;100688.40;104147;263;38265;-72
2023/08/24 08:36:47;;;;;;;3.90;2.20;;;;;;;32.39;34.29;100689.30;104131;275;38271;-72
2023/08/24 08:39:20;;;;;;;4.50;2.40;;;;;;;32.14;35.17;100684.23;104143;275;38397;-72
2023/08/24 08:41:54;;;;;;;4.30;2.10;;;;;;;32.36;35.95;100686.69;104113;275;38300;-72
2023/08/24 08:44:31;;;;;;;3.10;1.90;;;;;;;32.53;35.96;100685.38;104120;276;38257;-71
2023/08/24 08:47:08;;;;;;;4.50;2.20;;;;;;;32.60;34.75;100683.60;104096;263;38291;-71
2023/08/24 08:49:43;;;;;;;2.70;1.80;;;;;;;32.41;34.95;100680.92;104112;275;38467;-71
2023/08/24 08:52:17;;;;;;;5.20;2.40;;;;;;;32.71;35.20;100681.27;104158;275;38381;-72
2023/08/24 08:54:51;;;;;;;3.80;2.20;;;;;;;33.32;34.61;100684.48;104125;276;39371;-73
2023/08/24 08:57:26;;;;;;;4.40;2.00;;;;;;;33.91;33.44;100678.69;104039;275;39173;-72
2023/08/24 09:00:00;;;;;;;2.80;1.90;;;;;;;34.46;32.69;100678.98;104107;275;38243;-71
2023/08/24 09:02:35;;;;;;;4.40;1.80;;;;;;;34.74;32.25;100679.35;104176;275;39104;-73
2023/08/24 09:05:09;;;;;;;4.90;2.10;;;;;;;35.05;31.86;100679.02;104138;275;39391;-73
2023/08/24 09:07:44;;;;;;;3.50;2.10;;;;;;;35.45;31.15;100681.73;104153;275;38276;-73
2023/08/24 09:10:18;;;;;;;5.20;2.30;;;;;;;35.88;30.44;100678.39;104135;275;38460;-73
2023/08/24 09:12:52;;;;;;;2.50;2.00;;;;;;;36.09;29.45;100674.27;104154;275;39260;-73
2023/08/24 09:15:38;;;;;;;3.60;2.20;;;;;;;36.29;29.18;100679.10;104107;275;38393;-73
2023/08/24 09:18:12;;;;;;;4.80;2.40;;;;;;;36.49;29.20;100675.30;104154;275;38963;-71
2023/08/24 09:20:46;;;;;;;5.50;2.30;;;;;;;36.65;28.92;100676.48;104061;275;40332;-71
2023/08/24 09:23:24;;;;;;;4.20;2.20;;;;;;;36.67;28.74;100673.98;104151;275;39154;-72
2023/08/24 09:25:58;;;;;;;4.50;2.20;;;;;;;36.37;28.58;100672.90;104143;275;39259;-71
2023/08/24 09:28:32;;;;;;;4.00;2.30;;;;;;;35.97;28.63;100670.78;104165;263;38377;-71
2023/08/24 09:31:06;;;;;;;4.90;2.10;;;;;;;35.56;28.70;100668.21;104108;275;39405;-70
2023/08/24 09:33:40;;;;;;;3.50;2.20;;;;;;;35.43;29.59;100659.15;104161;275;38542;-72
2023/08/24 09:36:14;;;;;;;3.50;2.10;;;;;;;35.45;29.93;100659.73;104093;275;38471;-73
2023/08/24 09:38:52;;;;;;;4.20;2.40;;;;;;;35.46;29.62;100661.88;104181;275;39578;-72
2023/08/24 09:41:26;;;;;;;2.60;2.10;;;;;;;35.39;29.91;100660.54;104117;275;38595;-72
2023/08/24 09:44:05;;;;;;;3.80;2.10;;;;;;;35.30;29.72;100663.29;104169;275;38267;-72
2023/08/24 09:46:40;;;;;;;3.90;2.30;;;;;;;35.17;29.95;100666.80;104110;275;38505;-72
2023/08/24 09:49:14;;;;;;;3.30;2.30;;;;;;;34.84;29.49;100668.15;104160;275;38252;-71
2023/08/24 09:51:48;;;;;;;3.10;2.10;;;;;;;34.49;30.08;100664.73;104128;276;40163;-71
2023/08/24 09:54:22;;;;;;;3.30;1.90;;;;;;;34.21;30.53;100662.21;104162;275;38874;-71
2023/08/24 09:56:57;;;;;;;6.60;2.40;;;;;;;34.00;30.63;100662.55;104135;275;38560;-71
2023/08/24 09:59:32;;;;;;;4.00;2.00;;;;;;;33.84;30.63;100659.30;104186;275;38502;-71
2023/08/24 10:02:06;;;;;;;2.90;1.70;;;;;;;33.74;30.94;100661.89;104125;275;38749;-71
2023/08/24 10:04:41;;;;;;;2.50;1.90;;;;;;;33.62;30.96;100663.36;104086;275;38865;-72
2023/08/24 10:07:16;;;;;;;3.50;1.90;;;;;;;33.33;30.82;100663.23;104158;275;38508;-72
2023/08/24 10:09:54;;;;;;;3.10;1.80;;;;;;;33.07;31.21;100658.40;104146;275;38290;-72
2023/08/24 10:12:29;;;;;;;3.30;1.90;;;;;;;32.93;31.60;100658.01;104154;275;39500;-72
2023/08/24 10:15:06;;;;;;;4.00;2.00;;;;;;;32.80;31.32;100653.70;104109;275;39055;-72
2023/08/24 10:17:40;;;;;;;2.00;1.70;;;;;;;32.62;31.55;100657.95;104112;276;38244;-72
2023/08/24 10:20:14;;;;;;;4.00;1.80;;;;;;;32.48;32.57;100655.20;104135;275;38379;-72
2023/08/24 10:22:49;;;;;;;2.70;1.90;;;;;;;32.43;32.84;100657.23;104189;275;38567;-72
2023/08/24 10:25:24;;;;;;;3.20;2.00;;;;;;;32.32;32.55;100655.81;104128;275;38976;-72
2023/08/24 10:27:58;;;;;;;3.30;1.70;;;;;;;32.14;31.95;100653.54;104175;275;38723;-70
2023/08/24 10:30:32;;;;;;;3.90;2.00;;;;;;;32.01;33.01;100651.60;104010;275;174210;-69
2023/08/24 10:33:06;;;;;;;2.90;2.00;;;;;;;32.04;33.14;100654.30;104174;275;38581;-72
2023/08/24 10:35:40;;;;;;;3.70;1.80;;;;;;;32.05;32.84;100651.48;104073;275;39721;-73
2023/08/24 10:38:27;;;;;;;2.20;1.80;;;;;;;32.05;32.98;100650.77;104178;275;38435;-73
2023/08/24 10:41:08;;;;;;;3.80;2.40;;;;;;;32.04;32.62;100646.14;104137;275;39710;-72
2023/08/24 10:43:41;;;;;;;3.90;1.90;;;;;;;32.06;32.86;100643.54;104164;275;39480;-71
2023/08/24 10:46:17;;;;;;;4.70;2.10;;;;;;;32.05;33.05;100640.98;104118;275;39647;-71
2023/08/24 10:49:07;;;;;;;3.60;1.80;;;;;;;32.03;32.89;100640.46;104204;275;38391;-72
2023/08/24 10:51:48;;;;;;;3.60;2.20;;;;;;;31.84;33.15;100639.07;104137;275;39259;-72
2023/08/24 10:54:30;;;;;;;5.40;2.00;;;;;;;31.56;33.51;100635.02;104107;275;39911;-70
2023/08/24 10:57:04;;;;;;;4.40;1.80;;;;;;;31.44;33.87;100636.85;104138;263;38562;-71
2023/08/24 10:59:40;;;;;;;2.20;1.60;;;;;;;31.37;34.05;100639.50;104128;275;38602;-72
2023/08/24 11:02:21;;;;;;;2.60;1.90;;;;;;;31.32;33.85;100636.45;104168;275;38321;-71
2023/08/24 11:05:15;;;;;;;2.40;1.40;;;;;;;31.29;33.87;100633.03;104098;275;39425;-71
2023/08/24 11:07:56;;;;;;;2.50;1.60;;;;;;;31.26;33.91;100627.82;104029;276;38561;-71
2023/08/24 11:10:35;;;;;;;3.00;1.90;;;;;;;31.26;33.82;100625.44;104124;275;39816;-70
2023/08/24 11:13:19;;;;;;;2.90;1.80;;;;;;;31.23;33.72;100623.61;104173;275;38231;-70
2023/08/24 11:15:57;;;;;;;3.50;1.90;;;;;;;31.25;33.96;100625.42;104150;275;38588;-70
2023/08/24 11:18:30;;;;;;;;;;;;;;;31.28;33.57;100622.16;104137;275;39348;-72
2023/08/24 11:21:07;;;;;;;2.90;1.70;;;;;;;31.22;33.70;100621.55;104091;275;38234;-72
2023/08/24 11:23:42;;;;;;;4.50;2.20;;;;;;;31.22;34.06;100619.29;104161;275;38237;-70
2023/08/24 11:26:15;;;;;;;2.30;1.90;;;;;;;31.25;33.91;100615.35;104129;275;38417;-70
2023/08/24 11:28:49;;;;;;;3.20;2.30;;;;;;;31.22;33.88;100615.77;104163;275;39475;-72
2023/08/24 11:31:23;;;;;;;3.00;2.00;;;;;;;31.08;33.59;100617.73;99767;275;3011147;-72
2023/08/24 11:33:59;;;;;;;2.00;1.80;;;;;;;30.92;34.00;100620.07;104118;275;24949;-71
2023/08/24 11:36:34;;;;;;;3.00;1.60;;;;;;;30.74;33.93;100621.27;104117;275;38915;-71
2023/08/24 11:39:07;;;;;;;4.10;2.50;;;;;;;30.57;34.38;100619.70;104151;275;38766;-72
2023/08/24 11:41:41;;;;;;;4.40;1.80;;;;;;;30.43;34.99;100614.09;104135;263;38710;-72
2023/08/24 11:44:15;;;;;;;3.40;1.70;;;;;;;30.33;34.96;100606.91;104041;275;38995;-72
2023/08/24 11:46:49;;;;;;;3.80;2.10;;;;;;;30.32;34.79;100605.89;104093;276;38509;-72
2023/08/24 11:49:23;;;;;;;3.00;1.90;;;;;;;30.35;35.26;100605.61;104148;275;38480;-71
2023/08/24 11:51:59;;;;;;;3.80;2.40;;;;;;;30.39;35.52;100600.94;104119;275;38244;-69
2023/08/24 11:54:38;;;;;;;2.60;2.20;;;;;;;30.44;35.62;100598.70;104148;276;38321;-71
2023/08/24 11:57:11;;;;;;;;;;;;;;;30.52;35.53;100594.52;104162;275;38327;-71
2023/08/24 11:59:46;;;;;;;2.00;1.80;;;;;;;30.50;35.29;100599.30;104146;275;38401;-71
2023/08/24 12:02:23;;;;;;;2.80;2.10;;;;;;;30.38;35.31;100597.44;104159;275;40231;-72